Houston, Texas
Traffic Map
Current Weather Conditions
Houston, Texas
Broken Clouds
Broken Clouds
24°
Feels Like: 24°
Wind Chill: 24° Ceiling: 13000
Heat Index: 24° Visibility: 10mi
Dew Point: 23° Wind: 8mph
Humidity: 91% Direction: 90° (E)
Pressure: 30.11in Gusts: 0mph
Raw Report DataKIAH 260353Z 09007KT 10SM SCT020 SCT045 SCT075 BKN130 BKN250 24/23 A3011 RMK AO2 SLP197 T02440228
Traffic Incident Summary
Active as of:
Severity:
Category:
InformationThere was an issue retrieving the traffic information for this location. Please try a different location or try again shortly.
Advertisements
Track Severe Weather on mobile